Time;durP1;ratioP1;P1;durP2;ratioP2;P2;SDS_P1;SDS_P2;PMS_P1;PMS_P2;Temp;Humidity;BMP_temperature;BMP_pressure;BME280_temperature;BME280_humidity;BME280_pressure;Samples;Min_cycle;Max_cycle;Signal;HPM_P1;HPM_P2
2022/09/05 00:02:00;;;;;;;11.53;11.03;;;20.40;31.50;;;;;;5072155;28;20428;-42
2022/09/05 00:04:32;;;;;;;11.43;10.93;;;20.40;31.80;;;;;;5053997;28;20426;-44
2022/09/05 00:07:34;;;;;;;11.83;11.33;;;20.40;31.90;;;;;;5054271;28;20786;-41
2022/09/05 00:10:13;;;;;;;11.53;10.93;;;20.40;31.70;;;;;;5054163;28;20804;-44
2022/09/05 00:12:40;;;;;;;12.30;11.80;;;20.40;31.60;;;;;;5054194;28;20433;-45
2022/09/05 00:15:12;;;;;;;11.50;11.00;;;20.50;31.60;;;;;;5054351;28;20417;-42
2022/09/05 00:18:00;;;;;;;11.83;11.33;;;20.50;31.70;;;;;;5054145;28;20418;-43
2022/09/05 00:20:47;;;;;;;12.87;11.97;;;20.40;31.90;;;;;;5054037;28;20935;-46
2022/09/05 00:23:24;;;;;;;12.00;11.47;;;20.40;32.10;;;;;;5053966;28;20416;-43
2022/09/05 00:26:26;;;;;;;12.50;11.80;;;20.40;32.20;;;;;;5054185;28;20421;-44
2022/09/05 00:29:20;;;;;;;11.73;11.23;;;20.40;32.00;;;;;;5053966;28;20448;-43
2022/09/05 00:31:49;;;;;;;11.60;11.00;;;20.40;32.20;;;;;;5053773;28;20547;-46
2022/09/05 00:34:37;;;;;;;12.00;11.53;;;20.40;32.10;;;;;;5053859;28;20844;-46
2022/09/05 00:37:03;;;;;;;12.17;11.27;;;20.40;32.30;;;;;;5054015;28;20405;-45
2022/09/05 00:39:37;;;;;;;11.40;10.80;;;20.30;32.50;;;;;;5053801;28;20409;-45
2022/09/05 00:42:16;;;;;;;11.57;11.17;;;20.30;32.40;;;;;;5053822;28;20919;-45
2022/09/05 00:44:52;;;;;;;12.53;11.83;;;20.30;32.10;;;;;;5053831;28;20414;-43
2022/09/05 00:47:51;;;;;;;11.80;11.20;;;20.30;32.70;;;;;;5053867;28;20409;-43
2022/09/05 00:50:35;;;;;;;12.20;11.60;;;20.30;32.70;;;;;;5038887;28;20429;-47
2022/09/05 00:53:09;;;;;;;12.53;11.87;;;20.30;32.80;;;;;;5053742;28;20821;-44
2022/09/05 00:55:45;;;;;;;12.67;11.87;;;20.30;32.70;;;;;;5053689;28;20413;-45
2022/09/05 00:58:31;;;;;;;11.87;11.47;;;20.30;32.50;;;;;;5053709;28;20417;-44
2022/09/05 01:00:58;;;;;;;11.87;11.30;;;20.20;32.60;;;;;;5053653;28;20421;-47
2022/09/05 01:03:45;;;;;;;12.10;11.60;;;20.20;32.60;;;;;;5053597;28;20475;-43
2022/09/05 01:06:25;;;;;;;12.77;12.17;;;20.20;32.90;;;;;;5053928;28;20421;-50
2022/09/05 01:08:54;;;;;;;11.80;11.40;;;20.20;32.70;;;;;;5053971;28;20420;-51
2022/09/05 01:11:43;;;;;;;12.20;11.70;;;20.20;32.80;;;;;;5054582;28;20814;-48
2022/09/05 01:14:25;;;;;;;12.10;11.60;;;20.20;32.50;;;;;;5057555;28;20635;-52
2022/09/05 01:17:12;;;;;;;13.30;12.70;;;20.20;32.60;;;;;;5057498;28;20426;-51
2022/09/05 01:19:57;;;;;;;11.63;11.20;;;20.20;32.80;;;;;;5057283;28;20429;-44
2022/09/05 01:22:53;;;;;;;12.57;12.07;;;20.20;33.00;;;;;;5057259;28;20413;-45
2022/09/05 01:25:22;;;;;;;12.23;11.73;;;20.20;33.00;;;;;;5056706;28;20421;-48
2022/09/05 01:27:59;;;;;;;12.23;11.80;;;20.20;33.10;;;;;;5056951;28;20421;-50
2022/09/05 01:30:59;;;;;;;12.80;12.20;;;20.20;33.20;;;;;;5056337;28;20409;-52
2022/09/05 01:33:32;;;;;;;12.33;11.73;;;20.10;33.00;;;;;;5056460;28;20462;-50
2022/09/05 01:36:23;;;;;;;12.40;11.90;;;20.10;33.50;;;;;;5056927;28;20528;-54
2022/09/05 01:39:03;;;;;;;12.63;12.13;;;20.10;33.80;;;;;;5056813;28;20405;-51
2022/09/05 01:41:48;;;;;;;12.50;12.00;;;20.10;33.60;;;;;;5074142;28;20782;-51
2022/09/05 01:44:53;;;;;;;12.37;11.97;;;20.10;33.60;;;;;;5056389;28;20432;-48
2022/09/05 01:47:57;;;;;;;12.20;11.80;;;20.00;33.40;;;;;;5055916;28;20421;-48
2022/09/05 01:50:49;;;;;;;12.70;12.10;;;20.00;34.00;;;;;;5056140;28;20408;-50
2022/09/05 01:53:36;;;;;;;12.30;11.70;;;19.90;34.30;;;;;;5055819;28;20511;-49
2022/09/05 01:56:11;;;;;;;12.50;12.00;;;19.90;34.30;;;;;;5056282;28;20420;-49
2022/09/05 01:58:55;;;;;;;12.27;11.77;;;20.00;34.10;;;;;;5055855;28;20511;-50
2022/09/05 02:01:27;;;;;;;12.20;11.60;;;20.00;34.00;;;;;;5056479;28;20425;-50
2022/09/05 02:04:08;;;;;;;12.60;12.00;;;19.90;34.20;;;;;;5074084;28;20852;-52
2022/09/05 02:06:42;;;;;;;12.93;12.33;;;19.60;35.50;;;;;;5055678;28;20424;-54
2022/09/05 02:09:16;;;;;;;12.83;12.33;;;19.60;36.00;;;;;;5055833;28;20425;-51
2022/09/05 02:11:57;;;;;;;13.30;12.70;;;19.60;35.70;;;;;;5055452;28;20487;-50
2022/09/05 02:14:36;;;;;;;12.40;11.90;;;19.70;35.50;;;;;;5055891;28;20784;-50
2022/09/05 02:17:14;;;;;;;14.73;13.33;;;19.70;35.40;;;;;;5055964;28;20801;-53
2022/09/05 02:19:49;;;;;;;13.37;12.77;;;19.70;35.10;;;;;;5055974;28;20413;-48
2022/09/05 02:22:40;;;;;;;12.60;12.10;;;19.70;34.90;;;;;;5072683;28;20500;-52
2022/09/05 02:25:17;;;;;;;13.17;12.67;;;19.70;34.90;;;;;;5055615;28;20513;-55
2022/09/05 02:28:10;;;;;;;13.43;12.83;;;19.70;34.90;;;;;;5055180;28;20421;-51
2022/09/05 02:30:46;;;;;;;13.13;12.57;;;19.70;34.90;;;;;;5073107;28;20414;-53
2022/09/05 02:33:32;;;;;;;13.57;12.87;;;19.70;34.90;;;;;;5055833;28;20827;-54
2022/09/05 02:36:07;;;;;;;12.80;12.30;;;19.70;34.90;;;;;;5055351;28;20836;-53
2022/09/05 02:39:22;;;;;;;13.03;12.43;;;19.70;34.80;;;;;;5055473;28;20420;-52
2022/09/05 02:41:57;;;;;;;13.10;12.50;;;19.70;34.50;;;;;;5019147;28;20822;-55
2022/09/05 02:44:37;;;;;;;13.60;12.97;;;19.70;35.10;;;;;;5055397;28;20427;-52
2022/09/05 02:47:21;;;;;;;13.30;12.70;;;19.40;36.20;;;;;;5055638;28;20452;-45
2022/09/05 02:49:53;;;;;;;14.77;14.17;;;19.20;37.10;;;;;;5055322;28;21091;-42
2022/09/05 02:52:25;;;;;;;14.10;13.60;;;18.90;38.00;;;;;;5055653;28;20530;-43
2022/09/05 02:54:53;;;;;;;13.57;12.97;;;18.80;38.70;;;;;;5055286;28;20821;-41
2022/09/05 02:57:31;;;;;;;14.13;13.53;;;18.70;39.10;;;;;;5055467;28;20858;-42
2022/09/05 03:00:03;;;;;;;14.23;13.57;;;18.60;39.10;;;;;;5055073;28;20501;-44
2022/09/05 03:03:12;;;;;;;14.40;13.60;;;18.60;39.70;;;;;;5054931;28;20417;-42
2022/09/05 03:05:56;;;;;;;14.30;13.60;;;18.80;39.20;;;;;;5055249;28;20504;-45
2022/09/05 03:08:47;;;;;;;14.00;13.50;;;18.90;38.70;;;;;;5055153;28;20443;-42
2022/09/05 03:11:56;;;;;;;14.57;13.97;;;19.10;37.90;;;;;;5054899;28;20460;-43
2022/09/05 03:14:40;;;;;;;13.90;13.30;;;19.10;37.70;;;;;;5054831;28;20525;-42
2022/09/05 03:17:52;;;;;;;13.40;12.80;;;19.20;37.30;;;;;;5054198;28;20958;-42
2022/09/05 03:20:33;;;;;;;14.00;13.40;;;19.30;36.70;;;;;;5053731;28;20414;-45
2022/09/05 03:23:26;;;;;;;14.00;13.40;;;19.40;36.70;;;;;;5054362;28;20421;-42
2022/09/05 03:26:14;;;;;;;14.70;14.00;;;19.40;36.60;;;;;;5054270;28;20417;-47
2022/09/05 03:29:06;;;;;;;14.20;13.50;;;19.40;36.30;;;;;;5054434;28;20921;-43
2022/09/05 03:32:04;;;;;;;13.77;13.27;;;19.40;36.30;;;;;;5053770;28;20460;-45
2022/09/05 03:34:48;;;;;;;13.80;13.20;;;19.40;36.30;;;;;;5022918;28;20779;-43
2022/09/05 03:37:26;;;;;;;14.40;13.73;;;19.50;36.00;;;;;;5072048;28;20492;-46
2022/09/05 03:40:25;;;;;;;14.27;13.27;;;19.50;36.30;;;;;;5053522;28;20448;-43
2022/09/05 03:43:38;;;;;;;14.17;13.57;;;19.50;36.20;;;;;;5053508;28;20410;-42
2022/09/05 03:46:27;;;;;;;14.47;13.87;;;19.40;36.30;;;;;;5053808;28;20414;-42
2022/09/05 03:49:10;;;;;;;13.80;13.30;;;19.50;36.30;;;;;;5043214;28;20418;-43
2022/09/05 03:52:21;;;;;;;14.37;13.73;;;19.50;36.30;;;;;;5053280;28;20501;-44
2022/09/05 03:55:32;;;;;;;14.73;14.13;;;19.40;36.20;;;;;;5053838;28;20413;-42
2022/09/05 03:58:19;;;;;;;13.90;13.40;;;19.40;36.30;;;;;;4972024;28;20413;-45
2022/09/05 04:01:03;;;;;;;13.57;13.07;;;19.40;36.10;;;;;;5052992;28;20413;-44
2022/09/05 04:03:39;;;;;;;15.40;14.80;;;19.50;35.90;;;;;;5053441;28;20842;-50
2022/09/05 04:06:05;;;;;;;15.00;14.40;;;19.50;35.90;;;;;;5070978;28;20760;-42
2022/09/05 04:09:00;;;;;;;14.60;14.00;;;19.50;35.80;;;;;;5048128;28;20460;-47
2022/09/05 04:11:39;;;;;;;15.57;14.77;;;19.40;35.70;;;;;;5044248;28;20249;-44
2022/09/05 04:14:18;;;;;;;14.57;13.97;;;19.50;35.60;;;;;;5039169;28;20426;-41
2022/09/05 04:16:58;;;;;;;15.23;14.63;;;19.40;35.70;;;;;;5033066;28;20422;-41
2022/09/05 04:19:38;;;;;;;16.90;15.40;;;19.40;36.30;;;;;;5032621;28;20464;-49
2022/09/05 04:22:29;;;;;;;15.70;15.00;;;19.30;36.30;;;;;;5032529;28;20418;-50
2022/09/05 04:24:56;;;;;;;15.43;14.77;;;19.40;36.00;;;;;;5032979;28;20513;-51
2022/09/05 04:27:31;;;;;;;14.33;13.63;;;19.40;35.90;;;;;;5030149;28;20419;-52
2022/09/05 04:30:16;;;;;;;14.33;13.73;;;19.40;35.70;;;;;;5026065;28;20517;-52
2022/09/05 04:32:49;;;;;;;13.73;13.13;;;19.40;36.10;;;;;;5039308;28;21001;-53
2022/09/05 04:35:33;;;;;;;14.67;14.00;;;19.30;36.00;;;;;;5039075;28;20461;-52
2022/09/05 04:38:11;;;;;;;14.83;14.03;;;19.30;35.90;;;;;;5036653;28;20458;-52
2022/09/05 04:40:56;;;;;;;13.93;13.43;;;19.30;36.00;;;;;;5038903;28;20718;-51
2022/09/05 04:43:34;;;;;;;14.53;13.77;;;19.30;36.10;;;;;;5038389;28;20480;-53
2022/09/05 04:46:06;;;;;;;14.07;13.57;;;19.30;36.10;;;;;;5040927;28;20510;-54
2022/09/05 04:48:59;;;;;;;15.13;14.43;;;19.30;36.10;;;;;;5043068;28;20651;-51
2022/09/05 04:51:27;;;;;;;15.10;14.30;;;19.30;36.00;;;;;;5043012;28;20477;-52
2022/09/05 04:54:18;;;;;;;14.83;14.13;;;19.30;36.20;;;;;;5039643;28;20456;-41
2022/09/05 04:56:51;;;;;;;13.80;13.30;;;19.30;36.20;;;;;;5046095;28;20669;-44
2022/09/05 04:59:31;;;;;;;15.70;14.50;;;19.20;36.40;;;;;;5043956;28;20441;-43
2022/09/05 05:02:05;;;;;;;14.40;13.80;;;19.20;36.50;;;;;;5040466;28;20805;-42
2022/09/05 05:04:31;;;;;;;15.30;14.60;;;19.20;36.50;;;;;;5037810;28;20556;-42
2022/09/05 05:07:21;;;;;;;15.17;14.40;;;19.30;36.10;;;;;;5026278;28;20443;-44
2022/09/05 05:09:55;;;;;;;15.70;15.00;;;19.30;36.00;;;;;;5021878;28;20442;-43
2022/09/05 05:12:40;;;;;;;15.60;15.00;;;19.30;36.10;;;;;;5023349;28;20458;-43
2022/09/05 05:15:13;;;;;;;15.83;15.03;;;19.30;36.10;;;;;;5024131;28;20807;-44
2022/09/05 05:17:44;;;;;;;15.73;15.13;;;19.30;36.20;;;;;;5023429;28;20454;-42
2022/09/05 05:20:18;;;;;;;14.40;13.80;;;19.30;36.00;;;;;;5024848;28;20461;-42
2022/09/05 05:22:57;;;;;;;15.10;14.40;;;19.30;36.20;;;;;;5023625;28;20798;-42
2022/09/05 05:25:23;;;;;;;15.47;14.87;;;19.30;36.40;;;;;;5024133;28;20453;-42
2022/09/05 05:27:59;;;;;;;15.50;14.80;;;19.20;36.50;;;;;;5026659;28;20504;-43
2022/09/05 05:30:27;;;;;;;15.23;14.63;;;19.20;36.60;;;;;;5040805;28;20813;-41
2022/09/05 05:32:54;;;;;;;14.70;14.00;;;19.20;36.60;;;;;;5044506;28;20483;-48
2022/09/05 05:35:26;;;;;;;15.80;15.20;;;19.30;36.40;;;;;;5041501;28;20789;-46
2022/09/05 05:38:14;;;;;;;16.17;15.30;;;19.20;36.60;;;;;;5042774;28;20447;-51
2022/09/05 05:40:59;;;;;;;15.23;14.57;;;19.20;36.60;;;;;;5041035;28;20470;-51
2022/09/05 05:43:37;;;;;;;15.93;14.70;;;19.30;36.30;;;;;;5062229;28;20448;-53
2022/09/05 05:46:03;;;;;;;13.93;13.37;;;19.30;35.80;;;;;;5052792;28;20409;-51
2022/09/05 05:48:40;;;;;;;14.70;14.10;;;19.30;35.70;;;;;;5053562;28;20939;-52
2022/09/05 05:51:27;;;;;;;14.90;14.20;;;19.30;35.80;;;;;;5054728;28;20453;-56
2022/09/05 05:54:01;;;;;;;14.47;13.70;;;19.30;35.60;;;;;;5050953;28;20426;-61
2022/09/05 05:56:44;;;;;;;14.43;13.80;;;19.30;35.60;;;;;;5034901;28;20434;-54
2022/09/05 05:59:21;;;;;;;15.50;14.90;;;19.30;35.40;;;;;;5046599;28;20511;-51
2022/09/05 06:02:34;;;;;;;16.00;15.20;;;19.30;35.70;;;;;;5052284;28;20434;-53
2022/09/05 06:05:27;;;;;;;14.77;14.07;;;19.30;36.10;;;;;;5007826;28;20521;-52
2022/09/05 06:08:23;;;;;;;15.53;14.83;;;19.30;36.00;;;;;;5045706;28;20405;-49
2022/09/05 06:11:15;;;;;;;15.07;14.47;;;19.30;36.30;;;;;;5053117;28;20468;-41
2022/09/05 06:14:05;;;;;;;14.97;14.13;;;19.40;36.30;;;;;;5051574;28;20415;-43
2022/09/05 06:16:49;;;;;;;15.23;14.00;;;19.40;36.20;;;;;;5035389;28;20552;-40
2022/09/05 06:19:33;;;;;;;14.90;14.20;;;19.40;36.20;;;;;;5035126;28;20903;-43
2022/09/05 06:22:14;;;;;;;15.30;14.53;;;19.40;36.20;;;;;;5035292;28;20418;-41
2022/09/05 06:25:26;;;;;;;15.07;14.27;;;19.40;36.10;;;;;;5035292;28;20480;-43
2022/09/05 06:28:18;;;;;;;14.00;13.40;;;19.50;36.30;;;;;;5035292;28;20516;-44
2022/09/05 06:30:48;;;;;;;14.20;13.40;;;19.50;36.30;;;;;;5051421;28;20417;-50
2022/09/05 06:33:50;;;;;;;14.77;14.10;;;19.50;36.10;;;;;;5051689;28;20407;-48
2022/09/05 06:36:18;;;;;;;14.63;13.63;;;19.50;36.10;;;;;;5034589;28;20422;-46
2022/09/05 06:39:16;;;;;;;15.00;14.23;;;19.40;35.90;;;;;;5041879;28;20409;-50
2022/09/05 06:42:23;;;;;;;15.10;14.40;;;19.50;36.30;;;;;;5061951;28;20787;-40
2022/09/05 06:45:35;;;;;;;14.43;13.83;;;19.50;35.70;;;;;;5044785;28;20417;-43
2022/09/05 06:48:16;;;;;;;15.93;15.00;;;19.40;36.00;;;;;;5055450;28;20788;-42
2022/09/05 06:51:11;;;;;;;16.70;15.60;;;19.40;36.20;;;;;;5055214;28;20401;-44
2022/09/05 06:53:36;;;;;;;15.30;14.13;;;19.40;36.00;;;;;;5021074;28;20785;-40
2022/09/05 06:56:39;;;;;;;15.47;14.77;;;19.40;36.20;;;;;;5054775;28;20405;-44
2022/09/05 06:59:23;;;;;;;14.73;14.17;;;19.50;36.00;;;;;;5055483;28;20175;-41
2022/09/05 07:02:07;;;;;;;14.60;13.80;;;19.50;36.00;;;;;;5055171;28;20437;-43
2022/09/05 07:04:40;;;;;;;14.57;13.87;;;19.70;36.20;;;;;;5054653;28;20461;-41
2022/09/05 07:07:37;;;;;;;15.27;14.50;;;19.70;36.20;;;;;;5055083;28;20414;-44
2022/09/05 07:10:37;;;;;;;15.00;14.20;;;19.70;36.10;;;;;;5054178;28;20413;-52
2022/09/05 07:13:34;;;;;;;15.47;14.67;;;19.80;35.80;;;;;;5050209;28;20847;-53
2022/09/05 07:16:20;;;;;;;15.40;14.63;;;19.90;35.60;;;;;;5048940;28;20464;-50
2022/09/05 07:18:49;;;;;;;15.93;15.13;;;19.90;35.50;;;;;;5054722;28;20774;-50
2022/09/05 07:22:03;;;;;;;17.03;16.10;;;19.90;35.00;;;;;;5054683;28;20968;-52
2022/09/05 07:24:32;;;;;;;16.37;15.57;;;20.00;35.60;;;;;;4974894;28;20504;-49
2022/09/05 07:26:59;;;;;;;16.00;15.30;;;20.00;35.10;;;;;;5043723;28;20806;-51
2022/09/05 07:29:40;;;;;;;16.63;15.83;;;20.10;35.50;;;;;;5054073;28;20448;-52
2022/09/05 07:32:09;;;;;;;15.33;14.57;;;20.10;35.20;;;;;;5054744;28;20797;-52
2022/09/05 07:34:36;;;;;;;15.90;15.10;;;20.20;35.10;;;;;;5054265;28;20425;-51
2022/09/05 07:37:06;;;;;;;16.87;16.00;;;20.20;35.30;;;;;;5054715;28;20494;-48
2022/09/05 07:39:40;;;;;;;16.67;15.77;;;20.30;35.10;;;;;;5054511;28;20500;-53
2022/09/05 07:42:13;;;;;;;14.83;14.17;;;20.30;34.50;;;;;;5054688;28;20445;-50
2022/09/05 07:44:48;;;;;;;14.93;14.23;;;20.40;34.70;;;;;;5054548;28;20504;-52
2022/09/05 07:47:29;;;;;;;15.60;14.87;;;20.40;34.80;;;;;;5054393;28;20417;-52
2022/09/05 07:50:00;;;;;;;16.13;15.43;;;20.50;34.70;;;;;;5051055;28;20433;-52
2022/09/05 07:52:26;;;;;;;16.03;15.00;;;20.50;34.80;;;;;;5035104;28;20985;-50
2022/09/05 07:54:57;;;;;;;15.93;15.23;;;20.50;34.50;;;;;;5051152;28;20403;-50
2022/09/05 07:57:31;;;;;;;15.70;15.10;;;20.60;34.20;;;;;;5050905;28;20418;-52
2022/09/05 08:00:10;;;;;;;15.20;14.50;;;20.60;34.00;;;;;;5034378;28;20411;-54
2022/09/05 08:02:46;;;;;;;14.83;14.23;;;20.70;33.50;;;;;;5060281;28;20453;-51
2022/09/05 08:05:21;;;;;;;15.27;14.57;;;20.70;33.40;;;;;;5051370;28;20939;-55
2022/09/05 08:08:00;;;;;;;17.23;15.30;;;20.80;33.40;;;;;;5053396;28;20429;-48
2022/09/05 08:10:31;;;;;;;15.77;14.90;;;20.90;33.30;;;;;;5051923;28;20517;-50
2022/09/05 08:13:15;;;;;;;15.93;15.13;;;21.00;33.10;;;;;;5051805;28;20410;-44
2022/09/05 08:15:48;;;;;;;16.00;15.30;;;21.00;33.20;;;;;;5052218;28;20468;-43
2022/09/05 08:18:13;;;;;;;15.53;14.93;;;21.10;32.50;;;;;;5051094;28;20942;-47
2022/09/05 08:21:04;;;;;;;15.03;14.30;;;21.20;32.50;;;;;;5053303;28;20402;-45
2022/09/05 08:23:57;;;;;;;15.40;14.70;;;21.30;32.70;;;;;;5053456;28;20658;-44
2022/09/05 08:26:58;;;;;;;15.73;15.03;;;21.30;32.10;;;;;;5052801;28;20406;-41
2022/09/05 08:29:31;;;;;;;16.97;15.43;;;21.40;32.30;;;;;;4972390;28;20413;-43
2022/09/05 08:32:17;;;;;;;16.20;15.50;;;21.50;32.40;;;;;;5043972;28;20544;-42
2022/09/05 08:34:55;;;;;;;15.93;15.13;;;21.50;32.40;;;;;;5053665;28;20445;-53
2022/09/05 08:37:24;;;;;;;16.40;15.50;;;21.60;31.20;;;;;;5054048;28;20489;-41
2022/09/05 08:39:59;;;;;;;15.83;15.03;;;21.70;31.30;;;;;;5053112;28;20470;-41
2022/09/05 08:42:32;;;;;;;15.43;14.73;;;21.80;31.40;;;;;;5053831;28;20408;-42
2022/09/05 08:45:25;;;;;;;16.40;15.60;;;21.90;31.40;;;;;;5053645;28;20413;-42
2022/09/05 08:47:50;;;;;;;14.97;14.20;;;21.90;31.10;;;;;;5053823;28;20417;-43
2022/09/05 08:50:21;;;;;;;16.30;15.30;;;22.00;30.50;;;;;;5053539;28;20547;-41
2022/09/05 08:53:30;;;;;;;15.53;14.83;;;22.20;29.90;;;;;;5053730;28;20206;-43
2022/09/05 08:56:09;;;;;;;15.47;14.40;;;22.20;29.50;;;;;;4973729;28;20417;-43
2022/09/05 08:58:40;;;;;;;15.90;15.13;;;22.20;30.00;;;;;;4973729;28;20818;-42
2022/09/05 09:01:27;;;;;;;16.67;15.77;;;22.30;29.90;;;;;;5020837;28;20420;-43
2022/09/05 09:04:11;;;;;;;15.70;15.00;;;22.40;30.00;;;;;;5053217;28;20421;-41
2022/09/05 09:06:59;;;;;;;16.67;15.83;;;22.40;29.70;;;;;;5051832;28;20410;-40
2022/09/05 09:09:40;;;;;;;16.37;15.67;;;22.60;28.70;;;;;;5047357;28;20491;-47
2022/09/05 09:12:32;;;;;;;16.27;15.47;;;22.80;28.90;;;;;;5033517;28;20505;-47
2022/09/05 09:15:24;;;;;;;15.90;15.30;;;22.90;28.70;;;;;;5051652;28;20418;-50
2022/09/05 09:17:51;;;;;;;15.87;15.17;;;23.20;28.50;;;;;;5052609;28;20438;-49
2022/09/05 09:20:45;;;;;;;15.90;14.77;;;23.50;27.90;;;;;;5049765;28;20419;-53
2022/09/05 09:23:18;;;;;;;16.50;15.43;;;23.80;26.00;;;;;;5033607;28;20933;-53
2022/09/05 09:26:04;;;;;;;15.70;14.90;;;24.20;25.10;;;;;;5033541;28;20785;-53
2022/09/05 09:29:02;;;;;;;14.50;13.90;;;24.40;24.70;;;;;;5050904;28;20422;-52
2022/09/05 09:31:36;;;;;;;15.17;14.33;;;24.60;24.80;;;;;;5032360;28;20494;-53
2022/09/05 09:34:17;;;;;;;14.10;13.60;;;24.80;24.70;;;;;;5036636;28;20973;-54
2022/09/05 09:37:01;;;;;;;15.33;14.60;;;24.90;23.40;;;;;;5037299;28;20770;-54
2022/09/05 09:39:48;;;;;;;14.37;13.57;;;25.10;23.80;;;;;;5037180;28;20973;-54
2022/09/05 09:42:29;;;;;;;15.60;13.93;;;25.30;23.20;;;;;;5036918;28;20410;-54
2022/09/05 09:44:55;;;;;;;13.97;13.37;;;25.40;22.70;;;;;;5037026;28;20414;-52
2022/09/05 09:47:44;;;;;;;14.00;13.40;;;25.50;22.30;;;;;;5037004;28;20425;-50
2022/09/05 09:50:24;;;;;;;14.67;14.13;;;25.60;22.20;;;;;;5036711;28;20187;-53
2022/09/05 09:53:28;;;;;;;14.70;13.90;;;25.70;22.70;;;;;;5037053;28;20599;-53
2022/09/05 09:56:13;;;;;;;14.30;13.70;;;25.80;22.30;;;;;;5037032;28;20414;-53
2022/09/05 09:58:44;;;;;;;15.00;14.20;;;25.90;22.70;;;;;;5036789;28;20789;-51
2022/09/05 10:01:28;;;;;;;15.33;14.40;;;26.00;21.40;;;;;;5036560;28;20450;-51
2022/09/05 10:03:57;;;;;;;14.40;13.53;;;26.00;21.30;;;;;;5036901;28;20508;-44
2022/09/05 10:06:59;;;;;;;15.40;14.70;;;26.00;20.90;;;;;;5036653;28;20505;-44
2022/09/05 10:10:04;;;;;;;17.57;16.47;;;26.10;21.30;;;;;;5036499;28;20422;-49
2022/09/05 10:12:54;;;;;;;15.33;14.40;;;26.10;21.50;;;;;;5036050;28;20829;-47
2022/09/05 10:15:36;;;;;;;14.73;13.83;;;26.20;21.20;;;;;;5036444;28;20414;-53
2022/09/05 10:18:17;;;;;;;14.77;14.17;;;26.30;21.10;;;;;;5036598;28;20777;-48
2022/09/05 10:20:51;;;;;;;14.60;13.90;;;26.20;20.10;;;;;;5036333;28;20820;-52
2022/09/05 10:23:23;;;;;;;14.57;13.67;;;26.30;20.30;;;;;;5036350;28;20405;-51
2022/09/05 10:26:19;;;;;;;14.60;13.80;;;26.30;20.00;;;;;;5054275;28;20502;-52
2022/09/05 10:28:51;;;;;;;14.37;13.77;;;26.30;19.90;;;;;;5036317;28;20414;-50
2022/09/05 10:31:19;;;;;;;13.97;13.37;;;26.30;20.80;;;;;;5036158;28;20454;-49
2022/09/05 10:34:22;;;;;;;14.70;14.17;;;26.50;20.00;;;;;;5036209;28;20406;-52
2022/09/05 10:36:58;;;;;;;15.43;14.73;;;26.60;19.30;;;;;;5014149;28;20434;-46
2022/09/05 10:39:31;;;;;;;15.07;14.37;;;26.60;19.70;;;;;;5036004;28;20410;-44
2022/09/05 10:42:13;;;;;;;15.03;14.23;;;26.70;19.40;;;;;;5035919;28;20510;-45
2022/09/05 10:44:51;;;;;;;13.30;12.80;;;26.70;19.50;;;;;;5035643;28;20865;-47
2022/09/05 10:47:31;;;;;;;14.67;14.17;;;26.80;16.90;;;;;;5035922;28;20521;-46
2022/09/05 10:50:09;;;;;;;14.07;13.53;;;26.80;18.60;;;;;;5035925;28;20417;-45
2022/09/05 10:52:41;;;;;;;14.37;13.77;;;26.70;18.50;;;;;;5035672;28;20462;-51
2022/09/05 10:55:24;;;;;;;15.40;14.60;;;26.80;18.20;;;;;;5035971;28;20457;-46
2022/09/05 10:58:05;;;;;;;15.10;14.40;;;26.80;18.40;;;;;;5035677;28;20438;-44
2022/09/05 11:00:37;;;;;;;14.10;13.60;;;26.80;18.00;;;;;;5035380;28;20414;-54
2022/09/05 11:03:05;;;;;;;15.20;14.50;;;26.90;17.50;;;;;;5035550;28;20425;-55
2022/09/05 11:05:37;;;;;;;14.90;14.10;;;26.90;17.40;;;;;;5035540;28;20576;-51
2022/09/05 11:08:40;;;;;;;15.43;14.67;;;26.90;17.40;;;;;;5035577;28;20418;-54
2022/09/05 11:11:18;;;;;;;14.70;14.20;;;26.90;16.70;;;;;;5035515;28;20458;-52
2022/09/05 11:13:50;;;;;;;15.63;14.83;;;27.00;15.80;;;;;;5035346;28;20422;-53
2022/09/05 11:16:34;;;;;;;14.80;13.90;;;27.00;15.70;;;;;;5035444;28;20410;-53
2022/09/05 11:19:12;;;;;;;14.13;13.63;;;26.90;16.50;;;;;;5035360;28;20471;-50
2022/09/05 11:21:46;;;;;;;14.47;13.87;;;26.90;17.00;;;;;;5035040;28;20418;-52
2022/09/05 11:24:40;;;;;;;15.30;14.40;;;26.90;16.00;;;;;;5035162;28;20416;-51
2022/09/05 11:27:08;;;;;;;13.97;13.37;;;26.90;15.40;;;;;;5035231;28;20426;-54
2022/09/05 11:29:36;;;;;;;15.00;14.10;;;26.90;16.80;;;;;;5034957;28;20444;-50
2022/09/05 11:32:31;;;;;;;13.53;13.03;;;26.80;15.90;;;;;;5034895;28;20599;-49
2022/09/05 11:35:20;;;;;;;13.97;13.27;;;26.80;15.90;;;;;;5034912;28;20492;-51
2022/09/05 11:37:49;;;;;;;14.77;14.07;;;26.80;16.00;;;;;;5034976;28;20416;-54
2022/09/05 11:40:39;;;;;;;13.90;13.30;;;26.70;16.50;;;;;;5052510;28;20480;-53
2022/09/05 11:43:10;;;;;;;14.10;13.50;;;26.60;15.80;;;;;;5052997;28;20417;-49
2022/09/05 11:45:56;;;;;;;14.10;13.37;;;26.40;16.90;;;;;;5034643;28;20739;-44
2022/09/05 11:48:59;;;;;;;12.93;12.43;;;26.50;15.00;;;;;;5034487;28;20929;-42
2022/09/05 11:51:37;;;;;;;13.97;13.37;;;26.40;16.10;;;;;;5034368;28;20507;-43
2022/09/05 11:54:21;;;;;;;13.73;13.10;;;26.30;16.50;;;;;;5034583;28;20509;-45
2022/09/05 11:56:50;;;;;;;13.50;12.87;;;26.40;15.70;;;;;;5034264;28;20811;-43
2022/09/05 11:59:22;;;;;;;13.50;13.00;;;26.60;15.30;;;;;;5034587;28;20446;-43
2022/09/05 12:02:07;;;;;;;13.40;12.90;;;26.60;14.70;;;;;;5034351;28;20761;-54
2022/09/05 12:05:24;;;;;;;14.70;13.70;;;26.50;14.90;;;;;;5032974;28;20414;-50
2022/09/05 12:07:56;;;;;;;14.23;13.47;;;26.40;15.40;;;;;;5017471;28;20779;-54
2022/09/05 12:10:27;;;;;;;22.33;20.00;;;26.30;15.10;;;;;;5034079;28;20465;-52
2022/09/05 12:13:17;;;;;;;13.67;13.20;;;26.30;14.70;;;;;;5034331;28;20469;-54
2022/09/05 12:15:46;;;;;;;14.27;13.77;;;26.40;14.70;;;;;;5034389;28;20919;-54
2022/09/05 12:18:48;;;;;;;18.63;16.77;;;26.40;15.30;;;;;;5034120;28;20407;-54
2022/09/05 12:21:35;;;;;;;13.30;12.80;;;26.50;15.60;;;;;;5034028;28;20460;-46
2022/09/05 12:24:03;;;;;;;12.90;12.40;;;26.40;15.70;;;;;;5034142;28;20788;-48
2022/09/05 12:26:35;;;;;;;13.10;12.60;;;26.50;15.00;;;;;;5034075;28;20423;-45
2022/09/05 12:29:09;;;;;;;13.97;13.27;;;26.70;14.40;;;;;;5034041;28;20418;-50
2022/09/05 12:31:39;;;;;;;13.43;12.93;;;27.20;13.60;;;;;;5033613;28;20466;-48
2022/09/05 12:34:11;;;;;;;13.60;13.10;;;27.30;13.20;;;;;;5034073;28;20805;-48
2022/09/05 12:36:42;;;;;;;12.90;12.40;;;27.50;12.80;;;;;;5034029;28;20532;-51
2022/09/05 12:39:32;;;;;;;13.43;12.63;;;27.60;12.20;;;;;;5034057;28;20498;-51
2022/09/05 12:42:04;;;;;;;12.23;11.77;;;27.70;12.20;;;;;;5033819;28;20472;-51
2022/09/05 12:44:29;;;;;;;12.20;11.80;;;27.80;11.30;;;;;;5033855;28;20441;-52
2022/09/05 12:47:09;;;;;;;13.03;12.53;;;27.80;10.90;;;;;;5034003;28;20418;-49
2022/09/05 12:49:34;;;;;;;13.57;13.10;;;27.70;11.70;;;;;;5033841;28;20270;-52
2022/09/05 12:52:16;;;;;;;13.30;12.50;;;27.70;12.00;;;;;;5033659;28;21076;-52
2022/09/05 12:54:53;;;;;;;12.80;12.40;;;27.80;11.90;;;;;;5033912;28;20325;-43
2022/09/05 12:57:27;;;;;;;12.43;11.93;;;27.80;11.60;;;;;;5033762;28;20426;-42
2022/09/05 12:59:57;;;;;;;12.60;12.10;;;27.90;12.00;;;;;;5033831;28;20448;-43
2022/09/05 13:02:28;;;;;;;12.93;12.43;;;27.80;12.00;;;;;;5033615;28;20464;-43
2022/09/05 13:05:00;;;;;;;12.53;12.13;;;27.80;12.30;;;;;;5033769;28;20426;-43
2022/09/05 13:07:42;;;;;;;13.00;12.40;;;27.80;11.80;;;;;;5036401;28;20422;-44
2022/09/05 13:10:18;;;;;;;12.10;11.63;;;27.70;11.70;;;;;;5037535;28;20521;-42
2022/09/05 13:12:46;;;;;;;12.03;11.30;;;27.70;12.10;;;;;;5055468;28;20472;-44
2022/09/05 13:15:34;;;;;;;12.20;11.70;;;27.70;12.00;;;;;;5037446;28;20778;-48
2022/09/05 13:18:13;;;;;;;11.40;11.00;;;27.70;11.90;;;;;;5037562;28;20421;-46
2022/09/05 13:20:57;;;;;;;11.80;11.40;;;27.60;12.40;;;;;;5037221;28;20426;-43
2022/09/05 13:23:26;;;;;;;11.43;10.93;;;27.60;11.10;;;;;;5037314;28;20434;-43
2022/09/05 13:26:06;;;;;;;12.50;12.00;;;27.70;10.60;;;;;;5036975;28;20851;-45
2022/09/05 13:28:50;;;;;;;11.60;11.10;;;27.80;10.90;;;;;;5037352;28;20509;-50
2022/09/05 13:31:42;;;;;;;11.20;10.80;;;27.70;11.90;;;;;;5036846;28;20492;-47
2022/09/05 13:34:16;;;;;;;12.60;12.10;;;27.50;12.00;;;;;;5037106;28;20483;-48
2022/09/05 13:37:14;;;;;;;12.67;12.07;;;27.40;11.60;;;;;;5036900;28;20418;-47
2022/09/05 13:40:08;;;;;;;12.47;12.07;;;27.40;12.10;;;;;;5042830;28;20417;-51
2022/09/05 13:42:39;;;;;;;12.20;11.30;;;27.20;12.10;;;;;;5053392;28;20488;-51